createdAt,value
2022-12-17T00:01:46.425Z,37.9
2022-12-17T00:06:46.915Z,37.8
2022-12-17T00:11:47.131Z,37.8
2022-12-17T00:16:47.353Z,37.7
2022-12-17T00:21:47.802Z,37.7
2022-12-17T00:26:48.032Z,37.6
2022-12-17T00:31:48.334Z,37.6
2022-12-17T00:36:48.566Z,37.5
2022-12-17T00:41:49.028Z,37.4
2022-12-17T00:46:49.634Z,37.4
2022-12-17T00:51:49.850Z,37.4
2022-12-17T00:56:50.056Z,37.3
2022-12-17T01:01:50.518Z,37.2
2022-12-17T01:06:50.848Z,37.2
2022-12-17T01:11:51.277Z,37.1
2022-12-17T01:16:52.183Z,37.1
2022-12-17T01:21:52.636Z,37.1
2022-12-17T01:26:52.823Z,37
2022-12-17T01:31:56.386Z,36.9
2022-12-17T01:36:56.717Z,36.9
2022-12-17T01:41:57.001Z,36.9
2022-12-17T01:46:57.239Z,36.8
2022-12-17T01:51:57.684Z,36.7
2022-12-17T01:56:58.161Z,36.7
2022-12-17T02:01:58.499Z,36.7
2022-12-17T02:06:58.841Z,36.6
2022-12-17T02:11:59.065Z,36.6
2022-12-17T02:16:59.315Z,36.6
2022-12-17T02:21:59.570Z,36.5
2022-12-17T02:27:00.010Z,36.4
2022-12-17T02:32:00.284Z,36.4
2022-12-17T02:37:00.576Z,36.4
2022-12-17T02:42:00.796Z,36.3
2022-12-17T02:47:01.008Z,36.3
2022-12-17T02:52:01.424Z,36.2
2022-12-17T02:57:01.640Z,36.2
2022-12-17T03:02:02.037Z,36.2
2022-12-17T03:07:02.396Z,36.1
2022-12-17T03:12:02.639Z,36.1
2022-12-17T03:17:02.912Z,36.1
2022-12-17T03:22:03.185Z,36
2022-12-17T03:27:03.394Z,36
2022-12-17T03:32:03.844Z,35.9
2022-12-17T03:37:04.066Z,35.9
2022-12-17T03:42:04.253Z,35.9
2022-12-17T03:47:04.692Z,35.8
2022-12-17T03:52:04.882Z,35.8
2022-12-17T03:57:05.140Z,35.7
2022-12-17T04:02:05.441Z,35.7
2022-12-17T04:07:05.700Z,35.7
2022-12-17T04:12:06.109Z,35.6
2022-12-17T04:17:06.340Z,35.6
2022-12-17T04:22:06.531Z,35.6
2022-12-17T04:27:06.715Z,35.6
2022-12-17T04:32:07.129Z,35.5
2022-12-17T04:37:07.577Z,35.5
2022-12-17T04:42:07.751Z,35.4
2022-12-17T04:47:08.150Z,35.4
2022-12-17T04:52:08.576Z,35.4
2022-12-17T04:57:08.825Z,35.3
2022-12-17T05:02:09.181Z,35.3
2022-12-17T05:07:09.703Z,35.2
2022-12-17T05:12:09.905Z,35.2
2022-12-17T05:17:10.412Z,35.2
2022-12-17T05:22:10.645Z,35.2
2022-12-17T05:27:11.069Z,35.1
2022-12-17T05:32:13.129Z,35.1
2022-12-17T05:37:14.950Z,35.1
2022-12-17T05:42:16.788Z,35.1
2022-12-17T05:47:18.871Z,35
2022-12-17T05:52:19.051Z,35
2022-12-17T05:57:20.862Z,34.9
2022-12-17T06:02:21.145Z,34.9
2022-12-17T06:07:22.988Z,34.9
2022-12-17T06:12:25.042Z,34.9
2022-12-17T06:17:27.110Z,34.8
2022-12-17T06:22:28.914Z,34.8
2022-12-17T06:27:30.947Z,34.8
2022-12-17T06:32:32.790Z,34.7
2022-12-17T06:37:34.850Z,34.7
2022-12-17T06:42:36.692Z,34.7
2022-12-17T06:47:38.891Z,34.7
2022-12-17T06:52:40.954Z,34.6
2022-12-17T06:57:46.218Z,34.6
2022-12-17T07:02:51.329Z,34.6
2022-12-17T07:07:53.454Z,34.6
2022-12-17T07:12:56.063Z,34.6
2022-12-17T07:17:56.536Z,34.5
2022-12-17T07:22:58.603Z,34.5
2022-12-17T07:28:00.661Z,34.4
2022-12-17T07:33:02.751Z,34.4
2022-12-17T07:38:04.834Z,34.4
2022-12-17T07:43:06.761Z,34.4
2022-12-17T07:48:08.853Z,34.4
2022-12-17T07:53:10.882Z,34.3
2022-12-17T07:58:12.960Z,34.3
2022-12-17T08:03:15.237Z,34.2
2022-12-17T08:08:17.115Z,34.2
2022-12-17T08:13:19.192Z,34.2
2022-12-17T08:18:26.036Z,34.2
2022-12-17T08:23:28.519Z,34.2
2022-12-17T08:34:07.665Z,34.1
2022-12-17T08:39:09.921Z,34.1
2022-12-17T08:44:11.766Z,34.1
2022-12-17T08:49:13.812Z,34.1
2022-12-17T08:54:15.906Z,34
2022-12-17T08:59:17.796Z,34
2022-12-17T09:04:19.883Z,34
2022-12-17T09:09:21.894Z,33.9
2022-12-17T09:14:23.964Z,33.9
2022-12-17T09:19:25.784Z,33.9
2022-12-17T09:24:27.807Z,33.9
2022-12-17T09:29:29.852Z,33.8
2022-12-17T09:34:31.914Z,33.8
2022-12-17T09:39:33.962Z,33.8
2022-12-17T09:44:36.020Z,33.7
2022-12-17T09:49:37.848Z,33.7
2022-12-17T09:54:39.880Z,33.7
2022-12-17T09:59:41.895Z,33.7
2022-12-17T10:04:43.956Z,33.7
2022-12-17T10:09:45.970Z,33.7
2022-12-17T10:14:47.802Z,33.6
2022-12-17T10:19:49.907Z,33.6
2022-12-17T10:24:51.988Z,33.6
2022-12-17T10:29:52.434Z,33.6
2022-12-17T10:34:54.398Z,33.6
2022-12-17T10:39:56.427Z,33.5
2022-12-17T10:44:58.275Z,33.5
2022-12-17T10:50:00.369Z,33.5
2022-12-17T10:55:02.398Z,33.4
2022-12-17T11:00:04.425Z,32.1
2022-12-17T11:05:06.438Z,31.9
2022-12-17T11:10:09.703Z,31.9
2022-12-17T11:15:11.797Z,31.8
2022-12-17T11:20:13.856Z,31.8
2022-12-17T11:25:15.857Z,31.8
2022-12-17T11:30:17.855Z,31.8
2022-12-17T11:35:19.874Z,31.8
2022-12-17T11:40:21.834Z,31.8
2022-12-17T11:45:23.817Z,31.8
2022-12-17T11:50:25.588Z,31.7
2022-12-17T11:55:27.591Z,31.7
2022-12-17T12:00:29.556Z,31.7
2022-12-17T12:05:31.578Z,31.7
2022-12-17T12:10:33.515Z,31.6
2022-12-17T12:15:35.500Z,31.6
2022-12-17T12:20:37.505Z,31.6
2022-12-17T12:25:39.630Z,31.6
2022-12-17T12:30:41.608Z,31.5
2022-12-17T12:35:43.664Z,31.5
2022-12-17T12:40:45.790Z,31.5
2022-12-17T12:45:47.883Z,31.4
2022-12-17T12:50:49.903Z,31.4
2022-12-17T12:55:51.927Z,31.4
2022-12-17T13:00:53.953Z,31.4
2022-12-17T13:05:56.003Z,31.4
2022-12-17T13:10:57.949Z,31.4
2022-12-17T13:15:59.696Z,31.4
2022-12-17T13:21:01.714Z,31.3
2022-12-17T13:26:03.723Z,31.3
2022-12-17T13:31:05.668Z,31.3
2022-12-17T13:36:07.691Z,31.3
2022-12-17T13:41:10.588Z,31.2
2022-12-17T13:46:12.756Z,31.2
2022-12-17T13:51:14.836Z,31.2
2022-12-17T13:56:16.863Z,31.2
2022-12-17T14:01:18.964Z,31.2
2022-12-17T14:06:20.965Z,31.2
2022-12-17T14:11:23.136Z,31.2
2022-12-17T14:16:25.134Z,31.2
2022-12-17T14:21:27.114Z,31.1
2022-12-17T14:26:28.872Z,31.1
2022-12-17T14:31:30.830Z,31.1
2022-12-17T14:36:32.833Z,31.1
2022-12-17T14:41:34.811Z,31.1
2022-12-17T14:46:36.583Z,31.1
2022-12-17T14:51:38.581Z,31.1
2022-12-17T14:56:40.561Z,31
2022-12-17T15:01:42.589Z,31.1
2022-12-17T15:06:44.786Z,31
2022-12-17T15:11:47.005Z,31
2022-12-17T15:16:48.813Z,31
2022-12-17T15:21:50.618Z,30.9
2022-12-17T15:26:53.310Z,30.9
2022-12-17T15:31:55.383Z,30.9
2022-12-17T15:36:57.425Z,30.9
2022-12-17T15:41:59.204Z,30.9
2022-12-17T15:47:01.256Z,30.9
2022-12-17T15:52:03.281Z,30.9
2022-12-17T15:57:05.262Z,30.9
2022-12-17T16:02:07.404Z,30.9
2022-12-17T16:07:09.258Z,30.8
2022-12-17T16:12:11.038Z,30.8
2022-12-17T16:17:12.871Z,30.8
2022-12-17T16:22:14.956Z,30.8
2022-12-17T16:27:16.911Z,30.8
2022-12-17T16:32:18.940Z,30.8
2022-12-17T16:37:20.974Z,30.8
2022-12-17T16:42:22.752Z,30.8
2022-12-17T16:47:24.785Z,30.8
2022-12-17T16:52:26.830Z,30.8
2022-12-17T16:57:28.807Z,30.7
2022-12-17T17:02:30.769Z,30.7
2022-12-17T17:07:32.922Z,30.7
2022-12-17T17:12:34.700Z,30.7
2022-12-17T17:17:55.162Z,30.6
2022-12-17T17:22:57.987Z,30.6
2022-12-17T17:27:59.997Z,33.4
2022-12-17T17:33:00.424Z,36
2022-12-17T17:38:00.932Z,38.7
2022-12-17T17:43:01.309Z,41.1
2022-12-17T17:48:01.906Z,41.6
2022-12-17T17:53:02.513Z,41.7
2022-12-17T17:58:02.981Z,42.2
2022-12-17T18:03:03.895Z,43.1
2022-12-17T18:08:04.470Z,43.2
2022-12-17T18:13:04.926Z,43.2
2022-12-17T18:18:07.355Z,43
2022-12-17T18:23:10.111Z,44
2022-12-17T18:28:10.586Z,44.2
2022-12-17T18:33:11.101Z,44.2
2022-12-17T18:38:11.809Z,44.2
2022-12-17T18:43:12.542Z,44.1
2022-12-17T18:48:13.010Z,44.5
2022-12-17T18:53:13.593Z,44.6
2022-12-17T18:58:14.114Z,44.6
2022-12-17T19:03:14.674Z,44.2
2022-12-17T19:08:15.581Z,43.3
2022-12-17T19:13:16.302Z,43.1
2022-12-17T19:18:16.735Z,43.1
2022-12-17T19:23:17.176Z,42.9
2022-12-17T19:28:17.888Z,42.9
2022-12-17T19:33:18.758Z,42.8
2022-12-17T19:38:19.692Z,42.7
2022-12-17T19:43:20.489Z,42.6
2022-12-17T19:48:21.200Z,42.6
2022-12-17T19:53:21.886Z,42.5
2022-12-17T19:58:22.550Z,42.4
2022-12-17T20:03:23.331Z,42.3
2022-12-17T20:08:24.248Z,42.2
2022-12-17T20:13:24.882Z,42.1
2022-12-17T20:18:25.613Z,42.1
2022-12-17T20:23:26.260Z,41.9
2022-12-17T20:28:26.636Z,41.9
2022-12-17T20:33:27.275Z,41.8
2022-12-17T20:38:27.915Z,41.7
2022-12-17T20:43:28.531Z,41.6
2022-12-17T20:48:29.167Z,41.6
2022-12-17T20:53:29.797Z,41.4
2022-12-17T20:58:30.417Z,41.4
2022-12-17T21:03:31.070Z,41.3
2022-12-17T21:08:31.683Z,41.2
2022-12-17T21:13:32.087Z,41.1
2022-12-17T21:18:32.705Z,41.1
2022-12-17T21:23:33.386Z,41
2022-12-17T21:28:34.088Z,40.9
2022-12-17T21:33:34.731Z,40.8
2022-12-17T21:38:36.043Z,40.5
2022-12-17T21:43:36.767Z,40.2
2022-12-17T21:48:41.501Z,40.1
2022-12-17T21:53:42.563Z,40
2022-12-17T21:58:43.389Z,39.9
2022-12-17T22:03:43.835Z,39.8
2022-12-17T22:08:44.405Z,39.7
2022-12-17T22:13:45.208Z,39.6
2022-12-17T22:18:45.777Z,39.6
2022-12-17T22:23:46.124Z,39.5
2022-12-17T22:28:46.742Z,39.4
2022-12-17T22:33:57.680Z,39.3
2022-12-17T22:41:53.425Z,39.2
2022-12-17T22:49:35.220Z,39.1
2022-12-17T22:54:35.703Z,39.1
2022-12-17T22:59:36.409Z,39
2022-12-17T23:04:37.008Z,38.9
2022-12-17T23:09:37.588Z,38.9
2022-12-17T23:14:37.931Z,38.8
2022-12-17T23:19:38.248Z,38.7
2022-12-17T23:24:38.579Z,38.7
2022-12-17T23:29:38.898Z,38.6
2022-12-17T23:34:39.215Z,38.6
2022-12-17T23:39:39.810Z,38.5
2022-12-17T23:44:40.227Z,38.4
2022-12-17T23:49:40.550Z,38.4
2022-12-17T23:54:40.985Z,38.3
2022-12-17T23:59:41.317Z,38.2
